Time;durP1;ratioP1;P1;durP2;ratioP2;P2;SDS_P1;SDS_P2;PMS_P1;PMS_P2;Temp;Humidity;BMP_temperature;BMP_pressure;BME280_temperature;BME280_humidity;BME280_pressure;Samples;Min_cycle;Max_cycle;Signal;HPM_P1;HPM_P2
2020/12/29 00:00:40;;;;;;;4.70;2.85;;;8.20;81.10;;;;;;4938697;29;20056;-49
2020/12/29 00:03:06;;;;;;;5.47;3.00;;;8.20;80.90;;;;;;4937856;29;20458;-49
2020/12/29 00:05:32;;;;;;;4.63;2.67;;;8.20;80.90;;;;;;4938051;29;20111;-49
2020/12/29 00:07:57;;;;;;;5.28;2.28;;;8.10;80.80;;;;;;4942148;29;20443;-49
2020/12/29 00:10:24;;;;;;;5.45;3.28;;;8.10;81.20;;;;;;4948253;29;20043;-49
2020/12/29 00:12:50;;;;;;;3.47;2.60;;;8.20;81.00;;;;;;4937990;29;20039;-49
2020/12/29 00:15:16;;;;;;;7.20;3.22;;;8.20;81.50;;;;;;4938042;29;20040;-49
2020/12/29 00:17:42;;;;;;;5.82;2.80;;;8.20;81.00;;;;;;4937909;29;20032;-49
2020/12/29 00:20:08;;;;;;;4.30;2.42;;;8.10;81.00;;;;;;4937844;29;20055;-49
2020/12/29 00:22:34;;;;;;;3.75;2.05;;;8.10;81.00;;;;;;4937906;29;20037;-49
2020/12/29 00:25:00;;;;;;;3.05;1.98;;;8.20;80.90;;;;;;4937677;29;20106;-49
2020/12/29 00:27:26;;;;;;;4.80;2.10;;;8.20;81.10;;;;;;4936982;29;20525;-50
2020/12/29 00:29:52;;;;;;;3.30;2.28;;;8.20;81.30;;;;;;4937309;29;20067;-51
2020/12/29 00:32:20;;;;;;;5.45;2.92;;;8.20;81.10;;;;;;4937372;29;20107;-51
2020/12/29 00:34:47;;;;;;;5.57;2.65;;;8.20;81.20;;;;;;4937451;29;20051;-51
2020/12/29 00:37:13;;;;;;;5.57;3.10;;;8.20;81.00;;;;;;4937489;29;20082;-51
2020/12/29 00:39:39;;;;;;;3.65;2.63;;;8.20;80.80;;;;;;4937242;29;20047;-51
2020/12/29 00:42:05;;;;;;;4.22;2.55;;;8.10;80.80;;;;;;4920180;29;20031;-51
2020/12/29 00:44:30;;;;;;;6.05;2.92;;;8.10;81.00;;;;;;4937489;29;20028;-51
2020/12/29 00:46:56;;;;;;;2.97;2.03;;;8.20;81.40;;;;;;4937289;29;20114;-51
2020/12/29 00:49:21;;;;;;;7.45;1.45;;;8.20;81.10;;;;;;4937339;29;20090;-51
2020/12/29 00:51:47;;;;;;;4.43;1.70;;;8.20;81.30;;;;;;4937037;29;20028;-51
2020/12/29 00:54:13;;;;;;;3.08;2.05;;;8.20;81.30;;;;;;4952106;29;20499;-51
2020/12/29 00:56:38;;;;;;;3.72;1.75;;;8.20;81.20;;;;;;4956198;29;20461;-51
2020/12/29 00:59:04;;;;;;;2.15;1.10;;;8.20;81.50;;;;;;4949981;29;20039;-51
2020/12/29 01:01:30;;;;;;;3.42;2.10;;;8.20;81.10;;;;;;4936636;29;20063;-51
2020/12/29 01:03:55;;;;;;;1.85;1.05;;;8.20;81.10;;;;;;4936737;29;20038;-51
2020/12/29 01:06:28;;;;;;;1.23;1.13;;;8.20;81.40;;;;;;4928975;29;20024;-51
2020/12/29 01:08:54;;;;;;;1.23;0.93;;;8.20;81.00;;;;;;4940682;29;20055;-50
2020/12/29 01:11:19;;;;;;;0.98;0.77;;;8.20;81.30;;;;;;4939817;29;20065;-51
2020/12/29 01:13:45;;;;;;;7.05;0.90;;;8.20;81.30;;;;;;4936624;29;20111;-51
2020/12/29 01:16:12;;;;;;;0.60;0.60;;;8.20;80.80;;;;;;4937025;29;20028;-51
2020/12/29 01:18:38;;;;;;;1.00;0.30;;;8.20;80.90;;;;;;4936893;29;20282;-51
2020/12/29 01:21:05;;;;;;;0.82;0.82;;;8.20;81.40;;;;;;4936636;29;20030;-51
2020/12/29 01:23:32;;;;;;;1.15;1.05;;;8.20;80.90;;;;;;4936118;29;20433;-51
2020/12/29 01:25:58;;;;;;;2.10;1.23;;;8.20;81.00;;;;;;4936725;29;20464;-51
2020/12/29 01:28:23;;;;;;;1.83;0.88;;;8.10;80.70;;;;;;4936675;29;20040;-51
2020/12/29 01:30:49;;;;;;;0.43;0.43;;;8.20;80.90;;;;;;4936293;29;20067;-51
2020/12/29 01:33:14;;;;;;;0.68;0.68;;;8.20;81.10;;;;;;4936290;29;20061;-51
2020/12/29 01:35:40;;;;;;;6.45;1.58;;;8.10;81.20;;;;;;4936122;29;20628;-51
2020/12/29 01:38:06;;;;;;;1.50;1.40;;;8.20;81.10;;;;;;4936139;29;20028;-51
2020/12/29 01:40:32;;;;;;;0.43;0.43;;;8.20;80.60;;;;;;4936498;29;20028;-51
2020/12/29 01:42:58;;;;;;;0.65;0.57;;;8.10;81.00;;;;;;4936066;29;20020;-51
2020/12/29 01:45:25;;;;;;;0.30;0.30;;;8.20;80.90;;;;;;4936343;29;20038;-51
2020/12/29 01:47:51;;;;;;;0.52;0.52;;;8.20;80.80;;;;;;4936471;29;20335;-50
2020/12/29 01:50:25;;;;;;;0.30;0.30;;;8.10;81.10;;;;;;4936255;29;20091;-51
2020/12/29 01:52:59;;;;;;;0.80;0.80;;;8.10;80.80;;;;;;4940108;29;20515;-51
2020/12/29 01:55:26;;;;;;;0.68;0.55;;;8.20;81.10;;;;;;4955145;29;20132;-51
2020/12/29 01:57:52;;;;;;;0.50;0.50;;;8.10;80.70;;;;;;4955372;29;20038;-51
2020/12/29 02:00:18;;;;;;;0.40;0.40;;;8.20;81.30;;;;;;4937579;29;20023;-51
2020/12/29 02:02:45;;;;;;;0.20;0.20;;;8.20;80.90;;;;;;4928177;29;20130;-50
2020/12/29 02:05:10;;;;;;;0.57;0.40;;;8.20;81.10;;;;;;4935740;29;20032;-51
2020/12/29 02:07:37;;;;;;;0.40;0.40;;;8.20;80.80;;;;;;4937476;29;20020;-51
2020/12/29 02:10:04;;;;;;;0.32;0.32;;;8.20;81.10;;;;;;4948935;29;20039;-51
2020/12/29 02:12:35;;;;;;;0.60;0.60;;;8.10;80.70;;;;;;4935827;29;20071;-51
2020/12/29 02:15:04;;;;;;;1.88;0.75;;;8.10;81.00;;;;;;4936075;29;20051;-51
2020/12/29 02:17:29;;;;;;;0.25;0.25;;;8.10;81.00;;;;;;4919200;29;20020;-51
2020/12/29 02:19:55;;;;;;;1.60;0.80;;;8.20;80.60;;;;;;4935838;29;20107;-51
2020/12/29 02:22:22;;;;;;;3.30;1.35;;;8.20;81.00;;;;;;4935805;29;20023;-51
2020/12/29 02:24:53;;;;;;;0.20;0.20;;;8.10;80.80;;;;;;4935909;29;20119;-51
2020/12/29 02:27:20;;;;;;;11.00;0.65;;;8.20;80.90;;;;;;4935789;29;20110;-51
2020/12/29 02:29:47;;;;;;;0.20;0.20;;;8.20;80.90;;;;;;4935819;29;20082;-51
2020/12/29 02:32:13;;;;;;;0.90;0.90;;;8.20;80.70;;;;;;4935349;29;20476;-51
2020/12/29 02:34:39;;;;;;;1.02;0.85;;;8.10;80.90;;;;;;4935606;29;20474;-51
2020/12/29 02:37:09;;;;;;;0.30;0.30;;;8.10;80.10;;;;;;4936217;29;20043;-51
2020/12/29 02:39:43;;;;;;;0.50;0.50;;;8.10;80.90;;;;;;4935718;29;20523;-51
2020/12/29 02:42:10;;;;;;;0.25;0.25;;;8.10;80.40;;;;;;4942488;29;20067;-51
2020/12/29 02:44:37;;;;;;;1.20;0.98;;;8.10;80.80;;;;;;4954486;29;20037;-51
2020/12/29 02:47:03;;;;;;;0.95;0.40;;;8.10;80.50;;;;;;4954952;29;20082;-51
2020/12/29 02:49:34;;;;;;;0.32;0.32;;;8.10;80.80;;;;;;4954751;29;20059;-51
2020/12/29 02:52:01;;;;;;;0.30;0.30;;;8.10;80.90;;;;;;4957655;29;20027;-51
2020/12/29 02:54:27;;;;;;;0.60;0.60;;;8.10;80.50;;;;;;4958343;29;20070;-51
2020/12/29 02:56:54;;;;;;;0.30;0.30;;;8.10;80.90;;;;;;4958514;29;20381;-51
2020/12/29 02:59:23;;;;;;;0.25;0.25;;;8.10;80.10;;;;;;4956933;29;20078;-51
2020/12/29 03:01:49;;;;;;;2.83;1.25;;;8.10;80.30;;;;;;4958322;29;20423;-51
2020/12/29 03:04:15;;;;;;;6.80;0.73;;;8.10;80.60;;;;;;4958432;29;20573;-51
2020/12/29 03:06:41;;;;;;;0.90;0.68;;;8.10;80.90;;;;;;4945576;29;20501;-51
2020/12/29 03:09:06;;;;;;;0.75;0.65;;;8.10;80.30;;;;;;4952406;29;20043;-51
2020/12/29 03:11:32;;;;;;;0.50;0.50;;;8.10;80.50;;;;;;4940036;29;20115;-51
2020/12/29 03:14:00;;;;;;;0.15;0.15;;;8.10;80.50;;;;;;4939184;29;20468;-51
2020/12/29 03:16:26;;;;;;;0.30;0.30;;;8.10;80.20;;;;;;4933057;29;20043;-51
2020/12/29 03:18:53;;;;;;;0.20;0.20;;;8.10;80.00;;;;;;4946622;29;20101;-51
2020/12/29 03:21:18;;;;;;;0.90;0.60;;;8.10;80.50;;;;;;4942295;28;20131;-51
2020/12/29 03:23:44;;;;;;;0.45;0.45;;;8.10;80.40;;;;;;4938492;29;20115;-51
2020/12/29 03:26:10;;;;;;;0.75;0.75;;;8.10;80.20;;;;;;4919430;29;20028;-51
2020/12/29 03:28:36;;;;;;;0.40;0.40;;;8.10;79.90;;;;;;4919997;29;20056;-51
2020/12/29 03:31:03;;;;;;;0.50;0.50;;;8.10;80.50;;;;;;4936572;29;20449;-51
2020/12/29 03:33:29;;;;;;;2.17;0.50;;;8.10;80.40;;;;;;4938277;29;20350;-51
2020/12/29 03:35:54;;;;;;;0.80;0.47;;;8.10;80.80;;;;;;4938044;29;20532;-51
2020/12/29 03:38:21;;;;;;;0.30;0.30;;;8.10;80.20;;;;;;4938860;29;20028;-51
2020/12/29 03:40:48;;;;;;;0.30;0.30;;;8.10;80.30;;;;;;4938625;29;20030;-51
2020/12/29 03:43:14;;;;;;;0.20;0.20;;;8.10;80.50;;;;;;4938345;29;20365;-51
2020/12/29 03:45:44;;;;;;;0.20;0.20;;;8.10;80.90;;;;;;4938684;29;20068;-51
2020/12/29 03:48:11;;;;;;;0.20;0.20;;;8.10;80.00;;;;;;4938596;29;20047;-51
2020/12/29 03:50:40;;;;;;;1.75;0.90;;;8.10;80.30;;;;;;4938173;29;20040;-51
2020/12/29 03:53:06;;;;;;;0.38;0.38;;;8.10;80.00;;;;;;4944393;29;20066;-51
2020/12/29 03:55:32;;;;;;;1.55;0.55;;;8.10;80.20;;;;;;4957296;29;20120;-51
2020/12/29 03:57:58;;;;;;;0.20;0.20;;;8.10;80.40;;;;;;4957588;29;20048;-51
2020/12/29 04:00:24;;;;;;;0.25;0.25;;;8.10;80.40;;;;;;4940697;29;20051;-51
2020/12/29 04:02:50;;;;;;;0.30;0.30;;;8.10;80.60;;;;;;4937784;29;20350;-51
2020/12/29 04:05:16;;;;;;;0.85;0.30;;;8.10;80.10;;;;;;4938278;29;20047;-51
2020/12/29 04:07:42;;;;;;;0.20;0.20;;;8.10;79.70;;;;;;4940136;29;20087;-51
2020/12/29 04:10:08;;;;;;;0.20;0.20;;;8.10;80.30;;;;;;4950612;29;20441;-51
2020/12/29 04:12:34;;;;;;;0.28;0.28;;;8.10;80.20;;;;;;4937908;29;20023;-51
2020/12/29 04:15:00;;;;;;;0.30;0.30;;;8.10;79.80;;;;;;4938002;29;20040;-51
2020/12/29 04:17:26;;;;;;;0.50;0.50;;;8.10;80.10;;;;;;4937809;29;20023;-51
2020/12/29 04:19:51;;;;;;;1.35;0.43;;;8.10;79.60;;;;;;4937760;29;20087;-51
2020/12/29 04:22:18;;;;;;;0.22;0.22;;;8.10;80.30;;;;;;4937496;29;20024;-51
2020/12/29 04:24:44;;;;;;;0.20;0.20;;;8.10;81.00;;;;;;4937751;29;20520;-51
2020/12/29 04:27:09;;;;;;;3.10;0.28;;;8.10;80.10;;;;;;4937680;29;20031;-51
2020/12/29 04:29:35;;;;;;;0.43;0.43;;;8.10;80.20;;;;;;4937810;29;20426;-51
2020/12/29 04:32:00;;;;;;;0.25;0.25;;;8.10;79.60;;;;;;4937303;29;20027;-51
2020/12/29 04:34:26;;;;;;;0.20;0.20;;;8.10;79.90;;;;;;4937838;29;20070;-51
2020/12/29 04:36:53;;;;;;;1.27;0.40;;;8.10;80.00;;;;;;4937672;29;20070;-51
2020/12/29 04:39:19;;;;;;;0.30;0.30;;;8.10;79.90;;;;;;4937706;29;20051;-51
2020/12/29 04:41:50;;;;;;;0.20;0.20;;;8.10;80.30;;;;;;4937106;29;20062;-51
2020/12/29 04:44:17;;;;;;;0.30;0.30;;;8.10;79.80;;;;;;4937624;29;20032;-51
2020/12/29 04:46:43;;;;;;;0.30;0.30;;;8.10;80.10;;;;;;4937127;29;20110;-51
2020/12/29 04:49:09;;;;;;;0.30;0.30;;;8.10;79.80;;;;;;4937432;29;20032;-51
2020/12/29 04:51:36;;;;;;;0.47;0.30;;;8.10;79.80;;;;;;4936907;29;20332;-51
2020/12/29 04:54:06;;;;;;;0.40;0.40;;;8.10;79.90;;;;;;4950867;29;20118;-51
2020/12/29 04:56:33;;;;;;;0.20;0.20;;;8.10;80.20;;;;;;4956322;29;20473;-51
2020/12/29 04:59:00;;;;;;;0.40;0.40;;;8.10;79.90;;;;;;4933242;29;20028;-50
2020/12/29 05:01:30;;;;;;;0.20;0.20;;;8.10;80.10;;;;;;4936641;29;20091;-51
2020/12/29 05:03:56;;;;;;;1.42;0.88;;;8.10;80.20;;;;;;4936903;29;20031;-51
2020/12/29 05:06:25;;;;;;;0.30;0.30;;;8.20;79.70;;;;;;4936869;29;20373;-51
2020/12/29 05:08:53;;;;;;;0.40;0.40;;;8.10;80.00;;;;;;4948148;29;20023;-51
2020/12/29 05:11:22;;;;;;;0.20;0.20;;;8.20;79.90;;;;;;4939525;29;20039;-50
2020/12/29 05:13:48;;;;;;;0.17;0.17;;;8.20;80.20;;;;;;4936150;29;20023;-50
2020/12/29 05:16:15;;;;;;;0.20;0.20;;;8.10;80.10;;;;;;4936681;29;20497;-51
2020/12/29 05:18:41;;;;;;;0.20;0.20;;;8.20;79.50;;;;;;4937033;29;20028;-50
2020/12/29 05:21:07;;;;;;;0.40;0.40;;;8.20;80.10;;;;;;4936537;29;20368;-51
2020/12/29 05:23:35;;;;;;;1.65;0.40;;;8.10;80.20;;;;;;4936501;29;20031;-50
2020/12/29 05:26:01;;;;;;;1.48;0.40;;;8.20;80.00;;;;;;4936557;29;20130;-50
2020/12/29 05:28:27;;;;;;;0.50;0.50;;;8.20;79.90;;;;;;4936484;29;20031;-50
2020/12/29 05:31:01;;;;;;;0.30;0.30;;;8.10;79.70;;;;;;4936366;29;20465;-51
2020/12/29 05:33:28;;;;;;;0.20;0.20;;;8.20;79.60;;;;;;4936475;29;20111;-50
2020/12/29 05:35:55;;;;;;;0.30;0.30;;;8.20;80.00;;;;;;4936507;29;20051;-50
2020/12/29 05:38:21;;;;;;;0.40;0.40;;;8.10;79.70;;;;;;4936192;29;20482;-51
2020/12/29 05:40:49;;;;;;;1.25;0.60;;;8.10;79.70;;;;;;4936462;29;20039;-50
2020/12/29 05:43:15;;;;;;;0.43;0.30;;;8.10;79.70;;;;;;4935931;29;20450;-50
2020/12/29 05:45:40;;;;;;;0.30;0.30;;;8.20;79.90;;;;;;4936373;29;20043;-51
2020/12/29 05:48:06;;;;;;;0.38;0.38;;;8.20;80.20;;;;;;4936225;29;20092;-51
2020/12/29 05:50:34;;;;;;;1.05;0.30;;;8.20;79.20;;;;;;4936418;29;20027;-50
2020/12/29 05:53:04;;;;;;;1.08;0.50;;;8.20;79.70;;;;;;4941292;29;20019;-51
2020/12/29 05:55:31;;;;;;;;;;;8.20;79.90;;;;;;4955746;29;20093;-51
2020/12/29 05:58:07;;;;;;;0.32;0.32;;;8.20;79.50;;;;;;4955400;29;19911;-51
2020/12/29 06:00:34;;;;;;;1.17;0.47;;;8.20;79.60;;;;;;4937645;29;20032;-51
2020/12/29 06:03:02;;;;;;;0.40;0.40;;;8.20;79.70;;;;;;4935916;29;20369;-50
2020/12/29 06:05:29;;;;;;;0.30;0.30;;;8.20;79.90;;;;;;4935889;29;20024;-50
2020/12/29 06:07:57;;;;;;;2.17;0.63;;;8.20;79.70;;;;;;4939658;29;20466;-50
2020/12/29 06:10:25;;;;;;;0.20;0.20;;;8.20;79.80;;;;;;4946482;29;20114;-50
2020/12/29 06:12:53;;;;;;;3.17;0.75;;;8.20;79.90;;;;;;4935768;29;20038;-51
2020/12/29 06:15:25;;;;;;;1.73;0.52;;;8.20;80.00;;;;;;4935908;29;20071;-50
2020/12/29 06:17:56;;;;;;;1.98;0.52;;;8.20;79.80;;;;;;4936089;29;20032;-51
2020/12/29 06:20:22;;;;;;;2.75;0.80;;;8.20;79.50;;;;;;4935910;29;20083;-50
2020/12/29 06:22:51;;;;;;;2.60;0.45;;;8.20;80.00;;;;;;4935276;29;20059;-50
2020/12/29 06:25:18;;;;;;;0.45;0.45;;;8.30;80.00;;;;;;4936171;29;20480;-51
2020/12/29 06:27:51;;;;;;;0.30;0.30;;;8.20;80.30;;;;;;4939864;29;20023;-50
2020/12/29 06:30:19;;;;;;;1.08;0.82;;;8.30;80.40;;;;;;4939823;29;20114;-50
2020/12/29 06:32:48;;;;;;;1.05;0.60;;;8.20;79.70;;;;;;4939474;29;20039;-50
2020/12/29 06:35:14;;;;;;;1.50;0.80;;;8.20;79.70;;;;;;4939528;29;20048;-50
2020/12/29 06:37:46;;;;;;;0.55;0.55;;;8.20;80.10;;;;;;4940009;29;20058;-50
2020/12/29 06:40:13;;;;;;;2.30;0.70;;;8.20;79.90;;;;;;4939716;29;20035;-50
2020/12/29 06:42:41;;;;;;;4.43;0.70;;;8.20;80.10;;;;;;4939438;29;20055;-50
2020/12/29 06:45:08;;;;;;;3.88;0.50;;;8.30;80.10;;;;;;4939714;29;20023;-50
2020/12/29 06:47:38;;;;;;;0.60;0.60;;;8.30;80.00;;;;;;4939290;29;20149;-50
2020/12/29 06:50:22;;;;;;;1.55;0.70;;;8.30;80.20;;;;;;4939633;29;20030;-50
2020/12/29 06:53:04;;;;;;;0.90;0.77;;;8.30;80.10;;;;;;4943083;29;20031;-50
2020/12/29 06:55:36;;;;;;;0.50;0.50;;;8.30;80.00;;;;;;4958600;29;20457;-50
2020/12/29 06:58:04;;;;;;;0.22;0.22;;;8.30;80.10;;;;;;4958171;29;20031;-50
2020/12/29 07:00:29;;;;;;;0.95;0.47;;;8.30;80.00;;;;;;4940324;29;20410;-50
2020/12/29 07:02:55;;;;;;;0.43;0.40;;;8.30;80.10;;;;;;4922936;29;20458;-51
2020/12/29 07:05:22;;;;;;;4.85;0.57;;;8.30;80.30;;;;;;4922419;29;20042;-50
2020/12/29 07:07:53;;;;;;;2.08;0.80;;;8.30;80.50;;;;;;4941410;29;20046;-50
2020/12/29 07:10:19;;;;;;;0.75;0.45;;;8.30;80.10;;;;;;4928082;29;20059;-50
2020/12/29 07:12:50;;;;;;;1.10;0.43;;;8.30;80.40;;;;;;4938566;29;20028;-50
2020/12/29 07:15:23;;;;;;;;;;;8.40;80.60;;;;;;4939500;29;20094;-50
2020/12/29 07:18:00;;;;;;;0.65;0.40;;;8.30;80.30;;;;;;4939151;29;19907;-50
2020/12/29 07:20:32;;;;;;;0.60;0.60;;;8.30;81.10;;;;;;4939036;29;20019;-50
2020/12/29 07:23:08;;;;;;;1.08;0.70;;;8.30;80.40;;;;;;4938422;29;20039;-50
2020/12/29 07:25:35;;;;;;;0.73;0.40;;;8.40;80.40;;;;;;4939187;29;20032;-50
2020/12/29 07:28:06;;;;;;;1.08;0.52;;;8.40;80.30;;;;;;4938994;29;20106;-50
2020/12/29 07:30:33;;;;;;;0.73;0.68;;;8.40;80.20;;;;;;4938913;29;20067;-50
2020/12/29 07:33:04;;;;;;;1.73;0.70;;;8.40;80.40;;;;;;4938452;29;20343;-50
2020/12/29 07:35:32;;;;;;;3.85;0.60;;;8.40;79.90;;;;;;4938566;29;20040;-50
2020/12/29 07:38:03;;;;;;;0.90;0.60;;;8.40;80.40;;;;;;4938245;29;20460;-50
2020/12/29 07:40:29;;;;;;;3.25;0.73;;;8.40;80.00;;;;;;4938769;29;20031;-50
2020/12/29 07:42:55;;;;;;;0.85;0.40;;;8.40;80.60;;;;;;4938284;29;20023;-50
2020/12/29 07:45:22;;;;;;;0.57;0.38;;;8.40;80.10;;;;;;4937506;29;20113;-50
2020/12/29 07:47:48;;;;;;;0.30;0.30;;;8.40;80.20;;;;;;4938533;29;20020;-50
2020/12/29 07:50:13;;;;;;;0.20;0.20;;;8.40;80.00;;;;;;4938179;29;20354;-50
2020/12/29 07:52:39;;;;;;;2.83;0.70;;;8.40;80.60;;;;;;4940779;29;20055;-50
2020/12/29 07:55:12;;;;;;;2.70;0.60;;;8.40;80.60;;;;;;4957651;29;20090;-50
2020/12/29 07:57:37;;;;;;;0.70;0.50;;;8.50;80.60;;;;;;4957539;29;20035;-50
2020/12/29 08:00:11;;;;;;;0.20;0.20;;;8.40;79.90;;;;;;4943268;29;20042;-50
2020/12/29 08:02:37;;;;;;;5.38;0.63;;;8.40;79.90;;;;;;4937717;29;20118;-51
2020/12/29 08:05:04;;;;;;;0.57;0.57;;;8.40;80.80;;;;;;4938080;29;20457;-50
2020/12/29 08:07:30;;;;;;;0.43;0.30;;;8.40;80.30;;;;;;4938399;29;20036;-50
2020/12/29 08:09:56;;;;;;;0.25;0.25;;;8.40;80.80;;;;;;4952452;29;20048;-50
2020/12/29 08:12:21;;;;;;;0.52;0.30;;;8.40;80.50;;;;;;4937673;29;20024;-50
2020/12/29 08:14:47;;;;;;;0.45;0.45;;;8.40;80.70;;;;;;4938002;29;20044;-50
2020/12/29 08:17:13;;;;;;;16.75;0.80;;;8.40;80.20;;;;;;4937688;29;20028;-50
2020/12/29 08:19:39;;;;;;;0.30;0.30;;;8.40;80.50;;;;;;4937828;29;20446;-50
2020/12/29 08:22:11;;;;;;;0.52;0.52;;;8.40;80.60;;;;;;4937838;29;20028;-50
2020/12/29 08:24:41;;;;;;;0.20;0.20;;;8.40;80.80;;;;;;4937885;29;20032;-50
2020/12/29 08:27:07;;;;;;;0.30;0.30;;;8.40;80.80;;;;;;4937688;29;20059;-50
2020/12/29 08:29:33;;;;;;;3.35;1.05;;;8.40;80.60;;;;;;4937506;29;20066;-50
2020/12/29 08:32:10;;;;;;;0.30;0.30;;;8.40;80.00;;;;;;4937569;29;20127;-50
2020/12/29 08:34:40;;;;;;;0.20;0.20;;;8.40;80.60;;;;;;4937422;29;20377;-50
2020/12/29 08:37:08;;;;;;;0.63;0.60;;;8.40;80.10;;;;;;4937802;29;20115;-50
2020/12/29 08:39:36;;;;;;;0.35;0.35;;;8.40;80.50;;;;;;4930265;29;20044;-50
2020/12/29 08:42:03;;;;;;;0.60;0.60;;;8.40;80.60;;;;;;4941889;29;20063;-50
2020/12/29 08:44:30;;;;;;;2.65;0.82;;;8.40;80.80;;;;;;4937185;29;20035;-50
2020/12/29 08:46:56;;;;;;;0.60;0.57;;;8.40;80.40;;;;;;4937528;29;20042;-50
2020/12/29 08:49:29;;;;;;;1.65;0.52;;;8.40;80.60;;;;;;4936153;29;20032;-50
2020/12/29 08:51:55;;;;;;;0.30;0.30;;;8.40;80.30;;;;;;4937050;29;20460;-48
2020/12/29 08:54:22;;;;;;;0.30;0.30;;;8.40;80.20;;;;;;4953422;29;20357;-49
2020/12/29 08:56:47;;;;;;;0.30;0.30;;;8.30;77.80;;;;;;4956274;28;20027;-49
2020/12/29 08:59:19;;;;;;;0.20;0.20;;;8.20;76.60;;;;;;4948746;29;20028;-48
2020/12/29 09:02:03;;;;;;;2.08;0.47;;;7.90;74.10;;;;;;4936851;29;20454;-48
2020/12/29 09:04:33;;;;;;;0.40;0.40;;;7.80;76.40;;;;;;4937200;29;20069;-49
2020/12/29 09:07:02;;;;;;;0.68;0.60;;;7.70;73.10;;;;;;4936938;29;20019;-49
2020/12/29 09:09:29;;;;;;;0.20;0.20;;;7.60;76.20;;;;;;4951491;29;20368;-49
2020/12/29 09:12:08;;;;;;;0.85;0.60;;;7.70;77.10;;;;;;4936873;29;20031;-49
2020/12/29 09:14:34;;;;;;;0.30;0.30;;;7.70;76.40;;;;;;4936598;29;20031;-50
2020/12/29 09:17:05;;;;;;;0.45;0.45;;;7.80;78.00;;;;;;4936906;29;20047;-50
2020/12/29 09:19:31;;;;;;;0.30;0.30;;;7.90;79.30;;;;;;4936871;29;20032;-49
2020/12/29 09:22:11;;;;;;;0.30;0.30;;;7.90;77.20;;;;;;4935970;29;20062;-49
2020/12/29 09:24:51;;;;;;;1.55;0.50;;;7.90;77.60;;;;;;4936467;29;20436;-49
2020/12/29 09:27:32;;;;;;;3.83;1.10;;;7.90;78.10;;;;;;4936840;29;20031;-49
2020/12/29 09:30:11;;;;;;;0.30;0.30;;;8.00;77.60;;;;;;4936597;29;20032;-49
2020/12/29 09:32:38;;;;;;;0.57;0.57;;;8.00;79.10;;;;;;4936573;29;20027;-49
2020/12/29 09:35:26;;;;;;;1.55;0.75;;;8.00;79.20;;;;;;4936633;29;20083;-49
2020/12/29 09:37:54;;;;;;;0.40;0.40;;;8.00;78.90;;;;;;4936255;29;20058;-49
2020/12/29 09:40:20;;;;;;;0.50;0.50;;;8.00;77.70;;;;;;4936526;29;20449;-49
2020/12/29 09:42:46;;;;;;;0.63;0.63;;;8.00;77.30;;;;;;4935535;29;20405;-49
2020/12/29 09:45:11;;;;;;;0.20;0.20;;;8.00;77.20;;;;;;4936363;29;20464;-50
2020/12/29 09:47:37;;;;;;;2.53;0.60;;;8.00;77.00;;;;;;4936225;29;20028;-49
2020/12/29 09:50:03;;;;;;;0.35;0.30;;;8.00;76.60;;;;;;4936196;29;20031;-49
2020/12/29 09:52:32;;;;;;;1.05;0.50;;;8.00;78.30;;;;;;4937494;29;20023;-50
2020/12/29 09:54:58;;;;;;;0.40;0.40;;;8.00;76.10;;;;;;4955130;29;20050;-49
2020/12/29 09:57:24;;;;;;;0.30;0.30;;;8.00;75.80;;;;;;4955304;29;20520;-50
2020/12/29 09:59:50;;;;;;;0.40;0.40;;;8.00;75.10;;;;;;4929008;29;20418;-49
2020/12/29 10:02:16;;;;;;;0.30;0.30;;;8.00;75.50;;;;;;4935822;29;20032;-50
2020/12/29 10:04:41;;;;;;;0.30;0.30;;;8.00;75.50;;;;;;4936035;29;20361;-49
2020/12/29 10:07:07;;;;;;;0.75;0.60;;;8.00;75.10;;;;;;4935810;29;20016;-49
2020/12/29 10:09:33;;;;;;;0.40;0.40;;;8.00;76.10;;;;;;4950669;29;20062;-49
2020/12/29 10:11:58;;;;;;;0.30;0.30;;;8.00;77.20;;;;;;4918396;29;20167;-49
2020/12/29 10:14:24;;;;;;;0.25;0.25;;;8.00;77.60;;;;;;4936066;29;20034;-49
2020/12/29 10:16:50;;;;;;;0.47;0.47;;;8.00;76.70;;;;;;4917421;29;20030;-49
2020/12/29 10:19:15;;;;;;;2.05;0.47;;;8.00;78.80;;;;;;4935805;29;20024;-49
2020/12/29 10:21:43;;;;;;;0.75;0.75;;;8.00;76.60;;;;;;4935676;29;20029;-49
2020/12/29 10:24:10;;;;;;;0.52;0.52;;;8.00;75.50;;;;;;4936122;29;20047;-49
2020/12/29 10:26:35;;;;;;;4.13;1.02;;;8.00;75.40;;;;;;4935815;29;20036;-49
2020/12/29 10:29:01;;;;;;;0.30;0.30;;;8.00;77.80;;;;;;4935550;29;20024;-49
2020/12/29 10:31:27;;;;;;;0.50;0.50;;;8.00;76.10;;;;;;4935672;29;20036;-50
2020/12/29 10:33:52;;;;;;;0.20;0.20;;;8.00;77.70;;;;;;4935887;29;20051;-50
2020/12/29 10:36:18;;;;;;;0.50;0.50;;;8.00;77.00;;;;;;4935493;29;20047;-50
2020/12/29 10:38:44;;;;;;;0.32;0.30;;;8.00;77.80;;;;;;4935951;29;20031;-50
2020/12/29 10:41:09;;;;;;;0.70;0.70;;;8.00;75.00;;;;;;4935674;29;20027;-49
2020/12/29 10:43:35;;;;;;;0.75;0.60;;;8.10;76.90;;;;;;4935298;29;20390;-49
2020/12/29 10:46:01;;;;;;;0.20;0.20;;;8.10;75.00;;;;;;4935722;29;20034;-49
2020/12/29 10:48:26;;;;;;;0.30;0.30;;;8.10;74.10;;;;;;4935940;29;20107;-49
2020/12/29 10:50:52;;;;;;;4.13;0.77;;;8.10;75.30;;;;;;4935640;29;20460;-49
2020/12/29 10:53:18;;;;;;;2.20;0.73;;;8.10;76.80;;;;;;4943400;29;20456;-49
2020/12/29 10:55:43;;;;;;;0.63;0.52;;;8.10;77.10;;;;;;4939176;29;20198;-49
2020/12/29 10:58:09;;;;;;;0.20;0.20;;;8.10;74.80;;;;;;4935495;29;20032;-49
2020/12/29 11:00:35;;;;;;;3.45;0.70;;;8.10;76.20;;;;;;4941436;29;20171;-49
2020/12/29 11:03:00;;;;;;;1.25;0.77;;;8.10;77.00;;;;;;4935070;29;20453;-49
2020/12/29 11:05:26;;;;;;;0.30;0.30;;;8.40;77.50;;;;;;4935496;29;20051;-49
2020/12/29 11:07:51;;;;;;;0.65;0.55;;;8.60;77.20;;;;;;4938855;29;20019;-49
2020/12/29 11:10:17;;;;;;;2.17;1.02;;;8.70;75.30;;;;;;4937328;29;20024;-49
2020/12/29 11:12:43;;;;;;;2.03;1.00;;;8.70;75.60;;;;;;4937098;29;20203;-49
2020/12/29 11:15:08;;;;;;;0.40;0.40;;;8.70;75.70;;;;;;4939295;29;20071;-49
2020/12/29 11:17:34;;;;;;;1.55;0.77;;;8.80;75.00;;;;;;4939016;29;20083;-49
2020/12/29 11:20:02;;;;;;;0.50;0.50;;;9.00;74.10;;;;;;4933443;29;20028;-49
2020/12/29 11:22:27;;;;;;;0.30;0.30;;;9.10;73.90;;;;;;4928545;29;20059;-49
2020/12/29 11:24:53;;;;;;;0.30;0.30;;;9.10;72.50;;;;;;4930034;29;20055;-49
2020/12/29 11:27:19;;;;;;;0.32;0.32;;;8.90;74.00;;;;;;4927972;29;20059;-50
2020/12/29 11:29:44;;;;;;;0.30;0.30;;;8.70;72.90;;;;;;4930977;29;20463;-49
2020/12/29 11:32:10;;;;;;;0.30;0.30;;;8.60;73.00;;;;;;4929528;29;20055;-49
2020/12/29 11:34:35;;;;;;;1.50;0.60;;;8.70;74.40;;;;;;4927652;29;20103;-49
2020/12/29 11:37:01;;;;;;;0.65;0.50;;;8.80;76.10;;;;;;4933240;29;20038;-50
2020/12/29 11:39:27;;;;;;;0.30;0.30;;;9.00;72.60;;;;;;4938427;29;20030;-49
2020/12/29 11:41:53;;;;;;;0.30;0.30;;;9.10;74.40;;;;;;4937498;29;20058;-49
2020/12/29 11:44:19;;;;;;;0.30;0.30;;;9.00;75.60;;;;;;4938728;29;20059;-49
2020/12/29 11:46:45;;;;;;;1.20;0.40;;;8.90;76.10;;;;;;4938658;29;20055;-49
2020/12/29 11:49:10;;;;;;;0.30;0.30;;;9.00;76.20;;;;;;4938726;29;20445;-49
2020/12/29 11:51:36;;;;;;;2.53;0.52;;;8.90;77.60;;;;;;4938192;29;20024;-50
2020/12/29 11:54:01;;;;;;;0.40;0.40;;;8.80;76.40;;;;;;4934791;29;20058;-49
2020/12/29 11:56:27;;;;;;;6.00;0.70;;;8.80;77.10;;;;;;4957348;29;20031;-49
2020/12/29 11:58:53;;;;;;;0.57;0.40;;;9.00;75.90;;;;;;4953389;29;20035;-49
2020/12/29 12:01:19;;;;;;;0.68;0.68;;;9.10;74.40;;;;;;4937943;29;20362;-49
2020/12/29 12:03:45;;;;;;;0.20;0.20;;;9.20;72.90;;;;;;4938186;29;20467;-49
2020/12/29 12:06:11;;;;;;;4.18;0.80;;;9.30;72.20;;;;;;4937893;29;20024;-49
2020/12/29 12:08:36;;;;;;;3.13;0.90;;;9.20;73.40;;;;;;4947592;29;20027;-49
2020/12/29 12:11:02;;;;;;;0.65;0.65;;;9.10;76.30;;;;;;4943173;29;20450;-50
2020/12/29 12:13:27;;;;;;;0.93;0.93;;;9.00;77.50;;;;;;4937684;29;20070;-49
2020/12/29 12:15:56;;;;;;;1.20;0.60;;;8.90;77.10;;;;;;4938038;29;20095;-49
2020/12/29 12:18:22;;;;;;;0.70;0.65;;;8.90;77.80;;;;;;4938197;29;20024;-49
2020/12/29 12:20:49;;;;;;;0.30;0.30;;;8.80;79.80;;;;;;4937896;29;20034;-49
2020/12/29 12:23:15;;;;;;;0.40;0.40;;;8.80;80.00;;;;;;4936376;29;20032;-49
2020/12/29 12:25:40;;;;;;;0.32;0.32;;;8.80;79.60;;;;;;4937666;29;20075;-49
2020/12/29 12:28:06;;;;;;;1.98;0.80;;;8.70;77.80;;;;;;4937749;29;20027;-49
2020/12/29 12:30:31;;;;;;;1.55;1.10;;;8.70;78.60;;;;;;4937949;29;20062;-49
2020/12/29 12:32:57;;;;;;;1.30;0.68;;;8.80;79.30;;;;;;4937472;29;20028;-49
2020/12/29 12:35:23;;;;;;;1.40;0.60;;;8.70;79.50;;;;;;4937601;29;20042;-49
2020/12/29 12:37:48;;;;;;;2.05;1.00;;;8.70;79.00;;;;;;4937405;29;20028;-49
2020/12/29 12:40:14;;;;;;;1.63;0.65;;;8.60;80.20;;;;;;4936229;29;20024;-49
2020/12/29 12:42:39;;;;;;;2.45;0.65;;;8.60;81.40;;;;;;4935391;29;20457;-49
2020/12/29 12:45:05;;;;;;;0.98;0.52;;;8.60;80.60;;;;;;4937079;29;20171;-49
2020/12/29 12:47:31;;;;;;;2.45;1.23;;;8.60;79.70;;;;;;4937578;29;20249;-49
2020/12/29 12:49:56;;;;;;;5.57;1.23;;;8.60;78.20;;;;;;4936220;29;20628;-49
2020/12/29 12:52:22;;;;;;;2.17;0.60;;;8.50;79.30;;;;;;4937478;29;20028;-49
2020/12/29 12:54:47;;;;;;;1.13;0.65;;;8.50;78.50;;;;;;4956207;29;20042;-49
2020/12/29 12:57:13;;;;;;;1.55;0.70;;;8.50;79.70;;;;;;4956650;29;20030;-49